DTTJ/DJE METAR and TAF weather

Enter ICAO airport designator
Station Type Date Time Source
DTTJ METAR 2024/06/15 23:30 UTC NOAA

DTTJ 152330Z 16005KT CAVOK 25/17 Q1012


Station Type Date Time Source
DTTJ Decoded METAR 2024/06/15 23:30 UTC NOAA

Djerba Mellita, Tunisia (DTTJ) 33-52N 010-46E 4M
Jun 15, 2024 - 07:30 PM EDT / 2024.06.15 2330 UTC
Wind: from the SSE (160 degrees) at 6 MPH (5 KT):0
Visibility: greater than 7 mile(s):0
Temperature: 77 F (25 C)
Dew Point: 62 F (17 C)
Relative Humidity: 61%
Pressure (altimeter): 29.88 in. Hg (1012 hPa)
ob: DTTJ 152330Z 16005KT CAVOK 25/17 Q1012
cycle: 23

Station Type Date Time Source
DTTJ TAF 2024/06/15 18:27 UTC NOAA